Time;durP1;ratioP1;P1;durP2;ratioP2;P2;SDS_P1;SDS_P2;PMS_P1;PMS_P2;Temp;Humidity;BMP_temperature;BMP_pressure;BME280_temperature;BME280_humidity;BME280_pressure;Samples;Min_cycle;Max_cycle;Signal;HPM_P1;HPM_P2
2021/03/22 00:01:01;;;;;;;18.13;4.07;;;-0.20;96.30;;;;;;4996058;28;20225;-74
2021/03/22 00:03:27;;;;;;;28.13;5.03;;;-0.20;96.30;;;;;;4996225;28;20435;-74
2021/03/22 00:05:53;;;;;;;20.23;5.07;;;-0.20;96.30;;;;;;4996182;28;20441;-75
2021/03/22 00:08:21;;;;;;;20.50;4.60;;;-0.20;96.30;;;;;;4995553;28;20592;-74
2021/03/22 00:10:48;;;;;;;29.20;5.27;;;-0.20;96.30;;;;;;4995720;28;20421;-74
2021/03/22 00:13:16;;;;;;;29.13;6.30;;;-0.20;96.30;;;;;;4995796;28;20453;-73
2021/03/22 00:15:42;;;;;;;21.30;5.70;;;-0.20;96.30;;;;;;4996018;28;20471;-76
2021/03/22 00:18:10;;;;;;;22.50;5.30;;;-0.20;96.30;;;;;;4995357;28;20413;-76
2021/03/22 00:20:37;;;;;;;17.60;5.40;;;-0.20;96.30;;;;;;4995757;28;21035;-77
2021/03/22 00:23:02;;;;;;;19.67;5.57;;;-0.10;96.30;;;;;;4994624;28;20428;-76
2021/03/22 00:25:28;;;;;;;33.00;7.00;;;-0.10;96.30;;;;;;4995763;28;20417;-76
2021/03/22 00:27:53;;;;;;;18.33;4.30;;;0.00;96.30;;;;;;4995298;28;20201;-77
2021/03/22 00:30:26;;;;;;;24.97;5.47;;;0.10;96.30;;;;;;4995627;28;20181;-76
2021/03/22 00:32:51;;;;;;;29.20;6.43;;;0.10;96.30;;;;;;4994362;28;20184;-76
2021/03/22 00:35:17;;;;;;;18.43;4.23;;;0.10;96.30;;;;;;4995628;28;20413;-76
2021/03/22 00:37:43;;;;;;;33.83;5.30;;;0.10;96.30;;;;;;4995004;28;20177;-76
2021/03/22 00:40:11;;;;;;;28.73;6.60;;;0.10;96.30;;;;;;4995458;28;20456;-76
2021/03/22 00:42:36;;;;;;;21.77;4.70;;;0.10;96.30;;;;;;4995327;28;20344;-77
2021/03/22 00:45:04;;;;;;;21.20;3.80;;;0.20;96.30;;;;;;4995149;28;20983;-76
2021/03/22 00:47:30;;;;;;;16.17;4.20;;;0.10;96.30;;;;;;4994877;28;20673;-76
2021/03/22 00:49:55;;;;;;;29.57;5.40;;;0.10;96.30;;;;;;4995352;28;20416;-76
2021/03/22 00:52:21;;;;;;;25.50;6.63;;;0.10;96.30;;;;;;4994900;28;20196;-76
2021/03/22 00:54:46;;;;;;;26.50;4.43;;;0.10;96.30;;;;;;4995106;28;20197;-77
2021/03/22 00:57:12;;;;;;;25.83;6.10;;;0.10;96.30;;;;;;4994710;28;20174;-76
2021/03/22 00:59:37;;;;;;;30.33;5.60;;;0.20;96.30;;;;;;4995144;28;20173;-76
2021/03/22 05:00:29;;;;;;;26.73;7.67;;;-0.10;96.30;;;;;;6144624;22;20367;31
2021/03/22 05:02:55;;;;;;;26.80;8.37;;;-0.10;96.30;;;;;;4898086;29;20493;-80
2021/03/22 05:05:21;;;;;;;19.07;6.73;;;-0.10;96.30;;;;;;4901164;29;20444;-80
2021/03/22 05:07:47;;;;;;;22.43;6.70;;;-0.10;96.30;;;;;;4900370;29;20177;-79
2021/03/22 05:10:20;;;;;;;20.77;8.00;;;-0.10;96.30;;;;;;4900753;29;20909;-79
2021/03/22 05:12:46;;;;;;;31.53;8.77;;;-0.10;96.30;;;;;;4899603;29;20460;-79
2021/03/22 05:15:12;;;;;;;35.23;8.97;;;-0.10;96.30;;;;;;4899410;29;20488;-75
2021/03/22 05:17:37;;;;;;;32.00;8.30;;;-0.10;96.30;;;;;;4898497;29;20252;-75
2021/03/22 05:20:06;;;;;;;29.00;6.57;;;-0.10;96.30;;;;;;4898724;29;20955;-77
2021/03/22 05:22:32;;;;;;;21.40;7.67;;;-0.10;96.30;;;;;;4898930;29;20249;-75
2021/03/22 05:24:57;;;;;;;39.37;8.93;;;-0.10;96.30;;;;;;4898829;29;20422;-76
2021/03/22 05:27:23;;;;;;;30.27;6.77;;;-0.10;96.30;;;;;;4897305;29;20839;-75
2021/03/22 05:29:48;;;;;;;40.13;8.20;;;-0.10;96.30;;;;;;4898919;29;20251;-75
2021/03/22 05:32:34;;;;;;;28.73;7.40;;;-0.10;96.30;;;;;;4897547;29;20288;-75
2021/03/22 05:35:01;;;;;;;24.33;6.17;;;-0.10;96.30;;;;;;4897522;29;20691;-76
2021/03/22 05:37:27;;;;;;;28.83;6.90;;;0.00;96.30;;;;;;4896604;29;20933;-75
2021/03/22 05:39:53;;;;;;;27.60;7.50;;;0.00;96.30;;;;;;4898227;29;20461;-75
2021/03/22 05:42:40;;;;;;;23.27;6.73;;;0.00;96.30;;;;;;4898648;29;20433;-75
2021/03/22 05:45:45;;;;;;;21.03;6.50;;;0.00;96.30;;;;;;4897535;29;20192;-75
2021/03/22 05:48:18;;;;;;;27.73;6.90;;;0.00;96.30;;;;;;4895807;29;20473;-75
2021/03/22 05:51:23;;;;;;;31.07;7.03;;;0.00;96.30;;;;;;4898256;29;20443;-75
2021/03/22 05:54:18;;;;;;;26.17;7.53;;;0.10;96.30;;;;;;4897178;29;20488;-75
2021/03/22 05:57:00;;;;;;;22.33;5.70;;;0.10;96.30;;;;;;4898343;29;21220;-74
2021/03/22 05:59:44;;;;;;;24.77;7.23;;;0.10;96.30;;;;;;4898445;29;20402;-75
2021/03/22 06:02:33;;;;;;;42.33;6.67;;;0.10;96.30;;;;;;4898030;29;20503;-74
2021/03/22 06:05:29;;;;;;;32.43;8.10;;;0.10;96.30;;;;;;4896697;29;20437;-75
2021/03/22 06:08:01;;;;;;;35.97;10.70;;;0.10;96.30;;;;;;4895761;29;20471;-75
2021/03/22 06:10:38;;;;;;;29.53;7.60;;;0.20;96.30;;;;;;4898089;29;20505;-76
2021/03/22 06:13:05;;;;;;;33.50;8.53;;;0.10;96.30;;;;;;4898022;29;20413;-75
2021/03/22 06:15:39;;;;;;;38.67;9.30;;;0.10;96.30;;;;;;4897864;29;20481;-75
2021/03/22 06:18:24;;;;;;;34.97;8.77;;;0.10;96.30;;;;;;4897313;29;20418;-77
2021/03/22 06:20:53;;;;;;;23.30;7.17;;;0.10;96.30;;;;;;4897961;29;20433;-75
2021/03/22 06:23:26;;;;;;;27.83;8.60;;;0.20;96.30;;;;;;4897440;29;20423;-77
2021/03/22 06:25:52;;;;;;;24.80;8.40;;;0.20;96.30;;;;;;4897341;29;20448;-75
2021/03/22 06:28:24;;;;;;;35.37;9.77;;;0.20;96.30;;;;;;4902952;29;20428;-76
2021/03/22 06:31:05;;;;;;;26.03;7.43;;;0.20;96.30;;;;;;4915240;29;20590;-76
2021/03/22 06:33:31;;;;;;;32.30;8.77;;;0.20;96.30;;;;;;4916507;29;20955;-76
2021/03/22 06:35:56;;;;;;;26.17;10.10;;;0.20;96.30;;;;;;4900521;29;20424;-76
2021/03/22 06:38:22;;;;;;;30.97;8.77;;;0.20;96.30;;;;;;4897797;29;20668;-76
2021/03/22 06:40:47;;;;;;;30.50;8.77;;;0.20;96.30;;;;;;4895670;29;20200;-78
2021/03/22 06:43:17;;;;;;;34.13;9.47;;;0.20;96.30;;;;;;4897296;29;20248;-78
2021/03/22 06:45:45;;;;;;;30.30;7.60;;;0.20;96.30;;;;;;4896301;29;20177;-77
2021/03/22 06:48:13;;;;;;;22.70;7.07;;;0.30;96.30;;;;;;4911285;29;20421;-77
2021/03/22 06:50:38;;;;;;;41.03;8.87;;;0.30;96.30;;;;;;4897046;29;20444;-76
2021/03/22 06:53:04;;;;;;;33.77;9.00;;;0.30;96.30;;;;;;4897295;29;20893;-78
2021/03/22 06:55:34;;;;;;;39.87;9.50;;;0.30;96.30;;;;;;4897363;29;20181;-77
2021/03/22 06:58:01;;;;;;;31.50;9.20;;;0.30;96.30;;;;;;4896883;29;20493;-77
2021/03/22 07:00:28;;;;;;;24.43;8.80;;;0.30;96.30;;;;;;4895855;29;20418;-77
2021/03/22 07:03:03;;;;;;;29.30;9.70;;;0.30;96.30;;;;;;4897306;29;20398;-77
2021/03/22 07:05:34;;;;;;;38.20;9.03;;;0.30;96.30;;;;;;4896079;29;20434;-78
2021/03/22 07:08:04;;;;;;;18.63;9.00;;;0.30;96.30;;;;;;4896940;29;20488;-77
2021/03/22 07:10:51;;;;;;;26.20;9.80;;;0.40;96.30;;;;;;4897025;29;20942;-78
2021/03/22 07:13:32;;;;;;;34.60;9.27;;;0.40;96.30;;;;;;4895848;29;20421;-78
2021/03/22 07:16:19;;;;;;;33.50;8.67;;;0.50;96.30;;;;;;4897250;29;20405;-77
2021/03/22 07:19:06;;;;;;;27.23;8.77;;;0.50;96.30;;;;;;4896490;29;20442;-78
2021/03/22 07:21:34;;;;;;;31.90;8.83;;;0.60;96.30;;;;;;4897074;29;20421;-77
2021/03/22 07:24:25;;;;;;;27.23;9.53;;;0.60;96.30;;;;;;4897096;29;20413;-77
2021/03/22 07:27:28;;;;;;;28.13;7.70;;;0.70;96.30;;;;;;4897045;29;20406;-78
2021/03/22 07:30:20;;;;;;;38.70;9.47;;;0.80;96.30;;;;;;4897036;29;20397;-77
2021/03/22 07:32:49;;;;;;;24.47;8.50;;;0.90;96.30;;;;;;4896827;29;20448;-77
2021/03/22 07:36:00;;;;;;;31.07;8.90;;;0.90;96.30;;;;;;4897071;29;20976;-76
2021/03/22 07:39:03;;;;;;;22.60;6.57;;;0.90;96.30;;;;;;4896533;29;20413;-77
2021/03/22 07:41:52;;;;;;;31.20;8.70;;;0.90;96.30;;;;;;4897137;29;20431;-76
2021/03/22 07:44:43;;;;;;;25.10;8.23;;;0.90;96.30;;;;;;4897120;29;20402;-77
2021/03/22 07:47:45;;;;;;;26.70;8.73;;;0.90;96.30;;;;;;4896650;29;20426;-77
2021/03/22 07:50:38;;;;;;;20.40;8.10;;;0.80;96.30;;;;;;4896802;29;20393;-77
2021/03/22 07:53:23;;;;;;;25.00;8.97;;;0.90;96.30;;;;;;4889916;29;20948;-79
2021/03/22 07:55:54;;;;;;;29.83;9.70;;;0.90;96.30;;;;;;4878314;29;20444;-78
2021/03/22 07:58:45;;;;;;;24.80;9.80;;;0.90;96.30;;;;;;4876326;29;20436;-78
2021/03/22 08:01:56;;;;;;;32.90;9.33;;;0.90;96.30;;;;;;4878436;29;20473;-78
2021/03/22 08:04:21;;;;;;;20.73;10.13;;;0.90;96.30;;;;;;4880821;29;21025;-76
2021/03/22 08:07:02;;;;;;;42.97;12.63;;;0.90;96.30;;;;;;4881621;29;20497;-76
2021/03/22 08:10:03;;;;;;;35.63;10.70;;;0.90;96.30;;;;;;4881737;29;20181;-77
2021/03/22 08:12:29;;;;;;;31.83;9.00;;;0.90;96.30;;;;;;4886402;29;20501;-78
2021/03/22 08:15:15;;;;;;;25.43;10.07;;;0.90;96.30;;;;;;4919075;29;20456;-77
2021/03/22 08:18:02;;;;;;;24.43;10.00;;;0.90;96.30;;;;;;4917393;29;20598;-79
2021/03/22 08:20:32;;;;;;;28.53;9.80;;;0.90;96.30;;;;;;4919003;29;20436;-78
2021/03/22 08:23:22;;;;;;;37.73;10.83;;;0.90;96.30;;;;;;4919006;29;20404;-77
2021/03/22 08:25:50;;;;;;;24.27;9.83;;;0.90;96.30;;;;;;4919005;29;20412;-77
2021/03/22 08:28:40;;;;;;;22.77;9.10;;;0.90;96.30;;;;;;4918348;29;20789;-77
2021/03/22 08:31:10;;;;;;;22.33;8.93;;;0.90;96.30;;;;;;4918681;29;20939;-76
2021/03/22 08:33:59;;;;;;;46.13;9.70;;;0.90;96.30;;;;;;4918739;29;20944;-76
2021/03/22 08:36:51;;;;;;;30.77;8.40;;;0.80;96.30;;;;;;4918833;29;20401;-77
2021/03/22 08:39:36;;;;;;;21.17;8.63;;;0.80;96.30;;;;;;4917193;29;20772;-76
2021/03/22 08:42:08;;;;;;;24.60;9.67;;;0.80;96.30;;;;;;4918714;29;20580;-79
2021/03/22 08:44:47;;;;;;;24.00;7.90;;;0.80;96.30;;;;;;4918588;29;20919;-77
2021/03/22 08:47:19;;;;;;;29.73;9.10;;;0.90;96.30;;;;;;4918041;29;20411;-77
2021/03/22 08:49:57;;;;;;;27.33;7.83;;;1.00;96.30;;;;;;4918497;29;20452;-77
2021/03/22 08:52:36;;;;;;;11.10;5.53;;;1.10;96.30;;;;;;4918474;29;20487;-77
2021/03/22 08:55:06;;;;;;;27.50;7.73;;;1.20;96.30;;;;;;4912690;29;20547;-77
2021/03/22 08:57:38;;;;;;;29.17;7.53;;;1.20;96.30;;;;;;4900177;29;20432;-77
2021/03/22 09:00:24;;;;;;;28.77;7.30;;;1.20;96.30;;;;;;4912529;29;20421;-76
2021/03/22 09:02:56;;;;;;;32.97;8.17;;;1.30;96.30;;;;;;4908248;29;20913;-78
2021/03/22 09:05:26;;;;;;;31.20;7.20;;;1.30;96.30;;;;;;4907345;29;20447;-78
2021/03/22 09:07:51;;;;;;;16.30;7.07;;;1.20;96.30;;;;;;4912959;29;20425;-78
2021/03/22 09:10:23;;;;;;;19.63;7.50;;;1.30;96.30;;;;;;4899336;29;20777;-78
2021/03/22 09:12:49;;;;;;;16.20;6.93;;;1.50;96.30;;;;;;4912145;29;20232;-77
2021/03/22 09:15:33;;;;;;;15.73;7.90;;;1.60;96.30;;;;;;4899292;29;20460;-79
2021/03/22 09:18:01;;;;;;;19.17;7.60;;;1.60;96.30;;;;;;4911691;29;20519;-77
2021/03/22 09:20:30;;;;;;;31.43;7.40;;;1.70;96.30;;;;;;4899230;29;20449;-76
2021/03/22 09:23:04;;;;;;;23.63;7.63;;;1.80;96.30;;;;;;4906670;29;20818;-77
2021/03/22 09:25:56;;;;;;;23.70;7.00;;;1.60;96.30;;;;;;4899650;29;20421;-77
2021/03/22 09:28:24;;;;;;;20.33;7.60;;;1.60;96.30;;;;;;4896572;29;20426;-78
2021/03/22 09:30:54;;;;;;;23.53;5.90;;;1.60;96.30;;;;;;4908357;29;20861;-78
2021/03/22 09:33:47;;;;;;;17.83;6.60;;;1.70;96.30;;;;;;4899466;29;20422;-78
2021/03/22 09:36:37;;;;;;;26.37;6.60;;;1.90;96.30;;;;;;4916367;29;20420;-77
2021/03/22 09:39:15;;;;;;;22.47;7.17;;;1.80;96.30;;;;;;4916956;29;20818;-76
2021/03/22 09:41:59;;;;;;;23.63;7.07;;;1.70;96.30;;;;;;4917641;29;20948;-78
2021/03/22 09:44:33;;;;;;;22.50;7.70;;;1.70;96.30;;;;;;4917775;29;20416;-77
2021/03/22 09:47:14;;;;;;;26.07;6.00;;;1.70;96.30;;;;;;4896618;29;20996;-78
2021/03/22 09:49:57;;;;;;;18.60;5.27;;;1.70;96.30;;;;;;4913194;29;20527;-77
2021/03/22 09:52:29;;;;;;;18.63;5.43;;;1.60;96.30;;;;;;4907916;29;20464;-77
2021/03/22 09:54:56;;;;;;;18.13;5.80;;;1.60;96.30;;;;;;4916414;29;20444;-79
2021/03/22 09:57:34;;;;;;;17.30;5.77;;;1.70;96.30;;;;;;4897652;29;20502;-76
2021/03/22 10:00:22;;;;;;;18.60;5.70;;;1.70;96.30;;;;;;4897723;29;20484;-77
2021/03/22 10:02:50;;;;;;;16.90;5.90;;;1.80;96.30;;;;;;4898091;29;20389;-76
2021/03/22 10:05:21;;;;;;;19.33;6.07;;;1.90;96.30;;;;;;4897780;29;20921;-77
2021/03/22 10:07:59;;;;;;;14.37;4.07;;;1.90;96.30;;;;;;4902767;29;20451;-77
2021/03/22 10:10:46;;;;;;;21.23;5.80;;;2.00;96.30;;;;;;4896880;29;20796;-78
2021/03/22 10:13:53;;;;;;;14.57;4.63;;;2.00;96.30;;;;;;4896132;29;20414;-77
2021/03/22 10:16:34;;;;;;;34.27;5.93;;;2.10;96.30;;;;;;4913719;29;20433;-78
2021/03/22 10:19:20;;;;;;;20.73;5.97;;;2.10;96.30;;;;;;4900098;29;20432;-78
2021/03/22 10:21:52;;;;;;;14.43;5.70;;;2.00;96.30;;;;;;4896382;29;21017;-77
2021/03/22 10:25:01;;;;;;;16.77;6.27;;;1.90;96.30;;;;;;4897151;29;20398;-78
2021/03/22 10:27:29;;;;;;;31.80;5.93;;;2.10;96.30;;;;;;4896151;29;20502;-77
2021/03/22 10:30:11;;;;;;;17.40;5.20;;;2.40;96.30;;;;;;4895991;29;20417;-76
2021/03/22 10:32:41;;;;;;;20.70;6.90;;;2.70;96.30;;;;;;4910259;29;20444;-77
2021/03/22 10:35:11;;;;;;;16.43;5.47;;;3.00;96.30;;;;;;4909664;29;20535;-77
2021/03/22 10:37:49;;;;;;;25.23;5.77;;;2.90;96.30;;;;;;4912644;29;20894;-77
2021/03/22 10:40:24;;;;;;;18.83;6.37;;;3.00;96.30;;;;;;4895680;29;20416;-77
2021/03/22 10:42:51;;;;;;;15.20;6.00;;;3.00;96.30;;;;;;4896400;29;20435;-77
2021/03/22 10:45:23;;;;;;;26.13;7.17;;;3.20;96.30;;;;;;4909906;29;20456;-77
2021/03/22 10:47:53;;;;;;;20.23;6.80;;;3.10;96.30;;;;;;4878055;29;20398;-77
2021/03/22 10:50:31;;;;;;;18.70;9.40;;;3.00;96.30;;;;;;4885716;29;20413;-78
2021/03/22 10:53:09;;;;;;;25.43;9.47;;;3.10;96.30;;;;;;4895813;29;20976;-77
2021/03/22 10:55:35;;;;;;;16.67;9.60;;;3.30;96.30;;;;;;4901288;29;20958;-77
2021/03/22 10:58:02;;;;;;;32.93;9.60;;;3.90;96.30;;;;;;4910931;29;20427;-77
2021/03/22 11:00:33;;;;;;;25.33;9.30;;;4.30;96.30;;;;;;4896612;29;20418;-77
2021/03/22 11:03:01;;;;;;;30.97;9.40;;;4.40;96.30;;;;;;4902810;29;20905;-78
2021/03/22 11:05:33;;;;;;;28.83;8.10;;;4.30;96.30;;;;;;4901638;29;20501;-77
2021/03/22 11:08:04;;;;;;;22.30;6.80;;;4.10;96.30;;;;;;4896293;29;20465;-77
2021/03/22 11:10:29;;;;;;;30.47;9.10;;;3.90;96.30;;;;;;4927097;29;20437;-77
2021/03/22 11:12:55;;;;;;;24.77;9.33;;;3.60;96.30;;;;;;4915584;29;20828;-77
2021/03/22 11:15:37;;;;;;;23.73;8.70;;;3.40;96.30;;;;;;4896719;29;20688;-77
2021/03/22 11:18:06;;;;;;;32.87;10.20;;;3.50;96.30;;;;;;4896276;29;20189;-77
2021/03/22 11:20:31;;;;;;;25.90;10.83;;;3.50;96.30;;;;;;4902808;29;20440;-77
2021/03/22 11:23:26;;;;;;;24.77;9.77;;;3.30;96.30;;;;;;4898730;29;20409;-79
2021/03/22 11:25:56;;;;;;;35.13;10.17;;;3.30;96.30;;;;;;4911348;29;20605;-77
2021/03/22 11:28:21;;;;;;;23.50;9.27;;;3.30;96.30;;;;;;4902253;29;20445;-78
2021/03/22 11:30:52;;;;;;;23.77;11.10;;;3.20;96.30;;;;;;4895344;29;20445;-76
2021/03/22 11:33:56;;;;;;;27.73;10.00;;;3.30;96.30;;;;;;4893521;29;20223;-77
2021/03/22 11:36:38;;;;;;;23.70;8.53;;;3.40;96.30;;;;;;4907650;29;20492;-79
2021/03/22 11:39:19;;;;;;;27.87;9.40;;;3.60;96.30;;;;;;4911210;29;20464;-77
2021/03/22 11:42:06;;;;;;;29.67;9.80;;;3.80;96.30;;;;;;4898909;29;20473;-77
2021/03/22 11:44:34;;;;;;;26.77;10.97;;;4.00;96.30;;;;;;4907547;29;20409;-77
2021/03/22 11:47:37;;;;;;;23.20;11.30;;;3.90;96.30;;;;;;4899785;29;20646;-76
2021/03/22 11:50:34;;;;;;;31.90;12.20;;;4.10;96.30;;;;;;4914760;29;20417;-77
2021/03/22 11:53:08;;;;;;;35.77;13.17;;;4.30;96.30;;;;;;4899161;29;20424;-76
2021/03/22 11:55:46;;;;;;;28.30;12.03;;;5.60;96.30;;;;;;4904232;29;20440;-76
2021/03/22 11:58:36;;;;;;;26.40;12.57;;;6.50;96.30;;;;;;4880911;29;20523;-76
2021/03/22 12:01:23;;;;;;;25.40;10.17;;;6.90;96.30;;;;;;4892237;29;20508;-76
2021/03/22 12:04:14;;;;;;;18.17;8.57;;;6.90;96.30;;;;;;4884141;29;20412;-77
2021/03/22 12:07:05;;;;;;;22.87;8.27;;;6.30;96.30;;;;;;4900644;29;20480;-77
2021/03/22 12:09:32;;;;;;;18.23;6.83;;;5.90;96.30;;;;;;4899799;29;20928;-79
2021/03/22 12:12:01;;;;;;;19.20;7.70;;;5.60;96.30;;;;;;4899584;29;20516;-79
2021/03/22 12:14:27;;;;;;;26.93;8.33;;;5.40;96.30;;;;;;4899146;29;20464;-76
2021/03/22 12:17:02;;;;;;;14.50;6.60;;;4.90;96.30;;;;;;4899450;29;20453;-78
2021/03/22 12:19:40;;;;;;;19.23;6.30;;;4.80;96.30;;;;;;4899536;29;20161;-76
2021/03/22 12:22:09;;;;;;;19.10;5.93;;;4.70;96.30;;;;;;4903958;29;20437;-78
2021/03/22 12:24:35;;;;;;;17.07;7.57;;;4.50;96.30;;;;;;4896783;29;20448;-77
2021/03/22 12:27:00;;;;;;;22.30;7.47;;;4.30;96.30;;;;;;4898622;29;20933;-76
2021/03/22 12:29:26;;;;;;;21.27;6.73;;;4.00;96.30;;;;;;4899141;29;20282;-76
2021/03/22 12:31:52;;;;;;;15.27;7.27;;;3.70;96.30;;;;;;4898671;29;20292;-78
2021/03/22 12:34:20;;;;;;;25.77;8.40;;;3.40;96.30;;;;;;4899554;29;20231;-77
2021/03/22 12:36:47;;;;;;;27.27;8.27;;;3.40;96.30;;;;;;4899647;29;20185;-79
2021/03/22 12:39:20;;;;;;;22.27;9.10;;;3.60;96.30;;;;;;4899183;29;20445;-77
2021/03/22 12:41:47;;;;;;;20.53;9.07;;;3.90;96.30;;;;;;4899655;29;20429;-79
2021/03/22 12:44:12;;;;;;;21.53;8.57;;;4.30;96.30;;;;;;4899742;29;20417;-76
2021/03/22 12:46:39;;;;;;;19.50;8.80;;;5.20;96.30;;;;;;4899026;29;20437;-78
2021/03/22 12:49:04;;;;;;;21.30;7.80;;;5.30;96.30;;;;;;4913630;29;20189;-78
2021/03/22 12:51:30;;;;;;;19.70;7.63;;;5.20;96.30;;;;;;4901236;29;20876;-75
2021/03/22 12:53:55;;;;;;;23.30;7.87;;;5.00;96.30;;;;;;4899475;29;20213;-75
2021/03/22 12:56:26;;;;;;;24.67;10.13;;;4.70;96.30;;;;;;4907038;29;20180;-76
2021/03/22 12:58:57;;;;;;;26.77;8.67;;;4.30;96.30;;;;;;4902857;29;20177;-75
2021/03/22 13:01:24;;;;;;;23.00;8.00;;;3.90;96.30;;;;;;4894756;29;20461;-76
2021/03/22 13:03:49;;;;;;;22.53;8.70;;;3.60;96.30;;;;;;4899132;29;20456;-75
2021/03/22 13:06:15;;;;;;;21.80;8.67;;;3.70;96.30;;;;;;4899055;29;20790;-77
2021/03/22 13:08:40;;;;;;;17.23;8.00;;;3.80;96.30;;;;;;4913588;29;20185;-77
2021/03/22 13:11:09;;;;;;;15.00;7.57;;;4.00;96.30;;;;;;4899761;29;20562;-78
2021/03/22 13:13:35;;;;;;;29.07;8.77;;;4.70;96.30;;;;;;4900801;29;20676;-80
2021/03/22 13:16:00;;;;;;;20.93;8.63;;;5.70;96.30;;;;;;4898372;29;20425;-78
2021/03/22 13:18:28;;;;;;;20.73;7.77;;;5.90;96.30;;;;;;4898837;29;20185;-78
2021/03/22 13:21:08;;;;;;;20.43;7.77;;;5.80;96.30;;;;;;4902024;29;20240;-78
2021/03/22 13:23:35;;;;;;;25.17;8.10;;;5.90;96.30;;;;;;4909379;29;20972;-78
2021/03/22 13:26:00;;;;;;;37.83;10.07;;;6.00;96.30;;;;;;4899322;29;20433;-77
2021/03/22 13:28:29;;;;;;;24.23;7.13;;;5.30;96.30;;;;;;4898650;29;20756;-78
2021/03/22 13:30:57;;;;;;;21.20;7.77;;;4.90;96.30;;;;;;4899073;29;20612;-77
2021/03/22 13:33:26;;;;;;;15.27;6.27;;;4.90;96.30;;;;;;4906919;29;20437;-78
2021/03/22 13:35:52;;;;;;;22.30;7.40;;;4.90;96.30;;;;;;4898951;29;20993;-77
2021/03/22 13:38:20;;;;;;;22.20;7.33;;;5.00;96.30;;;;;;4898113;29;20456;-77
2021/03/22 13:40:46;;;;;;;25.93;6.40;;;5.00;96.30;;;;;;4898720;29;21148;-78
2021/03/22 13:43:20;;;;;;;19.30;7.20;;;5.00;96.30;;;;;;4899102;29;20500;-78
2021/03/22 13:45:45;;;;;;;18.80;7.10;;;5.00;96.30;;;;;;4891127;29;20429;-77
2021/03/22 13:48:12;;;;;;;17.00;7.70;;;5.00;96.30;;;;;;4898586;29;20481;-78
2021/03/22 13:50:38;;;;;;;21.23;9.00;;;5.10;96.30;;;;;;4898942;29;20205;-77
2021/03/22 13:53:04;;;;;;;18.50;7.63;;;5.60;96.30;;;;;;4898437;29;20444;-77
2021/03/22 13:55:30;;;;;;;15.53;7.80;;;6.30;96.30;;;;;;4901887;29;20555;-76
2021/03/22 13:57:56;;;;;;;19.30;8.30;;;6.90;96.30;;;;;;4902133;29;20191;-78
2021/03/22 14:00:22;;;;;;;18.53;7.10;;;6.70;96.30;;;;;;4897639;29;20173;-77
2021/03/22 14:02:48;;;;;;;17.70;7.27;;;6.50;96.30;;;;;;4898312;29;20216;-77
2021/03/22 14:05:25;;;;;;;17.90;6.40;;;5.80;96.30;;;;;;4898769;29;20805;-77
2021/03/22 14:07:52;;;;;;;18.57;7.20;;;5.40;96.30;;;;;;4899154;29;20432;-77
2021/03/22 14:10:19;;;;;;;20.90;6.27;;;5.20;96.30;;;;;;4918342;29;20433;-77
2021/03/22 14:12:45;;;;;;;12.00;5.40;;;5.10;96.30;;;;;;4902363;29;20474;-76
2021/03/22 14:15:25;;;;;;;15.37;5.90;;;4.90;96.30;;;;;;4900051;29;20547;-76
2021/03/22 14:17:51;;;;;;;19.00;6.23;;;4.70;96.30;;;;;;4897760;29;20448;-77
2021/03/22 14:20:22;;;;;;;22.13;7.20;;;4.70;96.30;;;;;;5110479;27;20562;-76
2021/03/22 14:22:48;;;;;;;17.03;8.77;;;4.70;96.30;;;;;;5110386;28;20391;-77
2021/03/22 14:25:16;;;;;;;19.13;9.23;;;4.50;96.30;;;;;;5120647;28;20165;-76
2021/03/22 14:27:42;;;;;;;15.67;7.10;;;4.30;96.30;;;;;;5130319;28;20158;-76
2021/03/22 14:30:15;;;;;;;26.13;8.20;;;4.50;96.30;;;;;;5130764;28;20452;-78
2021/03/22 14:32:40;;;;;;;24.90;8.60;;;4.50;96.30;;;;;;5130733;28;20194;-76
2021/03/22 14:35:06;;;;;;;18.77;7.87;;;4.30;96.30;;;;;;5130601;28;20909;-79
2021/03/22 14:37:31;;;;;;;27.37;9.83;;;4.60;96.30;;;;;;5129850;28;20177;-76
2021/03/22 14:39:57;;;;;;;27.27;10.40;;;5.50;96.30;;;;;;5130183;28;20192;-77
2021/03/22 14:42:22;;;;;;;30.50;10.13;;;6.10;96.30;;;;;;5129274;28;20679;-76
2021/03/22 14:44:48;;;;;;;24.23;11.73;;;6.40;96.30;;;;;;5113975;28;20176;-79
2021/03/22 14:47:13;;;;;;;19.93;10.40;;;6.50;96.30;;;;;;5108373;28;20232;-76
2021/03/22 14:49:39;;;;;;;16.10;8.50;;;6.20;96.30;;;;;;5094027;28;20311;-76
2021/03/22 14:52:05;;;;;;;30.23;9.90;;;5.80;96.30;;;;;;5089171;28;20202;-78
2021/03/22 14:54:30;;;;;;;20.73;7.80;;;5.60;96.30;;;;;;5089260;28;20169;-76
2021/03/22 14:56:56;;;;;;;19.77;8.73;;;5.30;96.30;;;;;;5089480;28;20232;-76
2021/03/22 14:59:21;;;;;;;23.10;9.77;;;5.30;96.30;;;;;;5099903;28;20193;-76
2021/03/22 15:01:47;;;;;;;23.70;10.10;;;5.20;96.30;;;;;;5109472;28;20189;-78
2021/03/22 15:04:13;;;;;;;21.63;10.50;;;5.10;96.30;;;;;;5097378;28;20174;-76
2021/03/22 15:06:38;;;;;;;21.43;9.80;;;4.90;96.30;;;;;;5089084;28;20577;-76
2021/03/22 15:09:04;;;;;;;22.23;10.10;;;4.70;96.30;;;;;;5095283;28;20411;-76
2021/03/22 15:11:30;;;;;;;24.10;9.50;;;4.50;96.30;;;;;;5116408;28;20201;-76
2021/03/22 15:13:56;;;;;;;22.37;10.43;;;4.60;96.30;;;;;;5110863;28;20928;-76
2021/03/22 15:16:21;;;;;;;20.87;8.27;;;4.50;96.30;;;;;;5094733;28;20170;-79
2021/03/22 15:18:47;;;;;;;22.30;7.90;;;4.40;96.30;;;;;;5127047;28;20205;-76
2021/03/22 15:21:12;;;;;;;20.23;7.50;;;4.40;96.30;;;;;;5124971;28;20201;-76
2021/03/22 15:23:38;;;;;;;15.93;7.00;;;4.40;96.30;;;;;;5101354;28;20177;-76
2021/03/22 15:26:03;;;;;;;14.70;6.80;;;4.30;96.30;;;;;;5090800;28;20507;-79
2021/03/22 15:28:32;;;;;;;18.77;8.27;;;4.30;96.30;;;;;;5107303;28;20181;-76
2021/03/22 15:30:59;;;;;;;22.63;9.67;;;4.40;96.30;;;;;;5099856;28;20190;-76
2021/03/22 15:33:31;;;;;;;24.60;8.63;;;4.30;96.30;;;;;;5095382;28;20480;-76
2021/03/22 15:36:28;;;;;;;20.17;9.70;;;4.30;96.30;;;;;;5095344;28;20404;-77
2021/03/22 15:38:54;;;;;;;18.07;9.10;;;4.40;96.30;;;;;;5082952;28;20463;-77
2021/03/22 15:41:24;;;;;;;18.60;9.03;;;4.60;96.30;;;;;;5095214;28;20810;-76
2021/03/22 15:43:51;;;;;;;15.73;8.83;;;4.80;96.30;;;;;;5086045;28;20171;-77
2021/03/22 15:46:17;;;;;;;20.13;8.37;;;4.80;96.30;;;;;;5074903;28;20879;-78
2021/03/22 15:48:43;;;;;;;21.07;8.90;;;4.90;96.30;;;;;;5074272;28;20410;-77
2021/03/22 15:51:10;;;;;;;19.63;8.50;;;4.70;96.30;;;;;;5074621;28;20432;-76
2021/03/22 15:53:37;;;;;;;19.57;8.33;;;4.60;96.30;;;;;;5075272;28;20594;-77
2021/03/22 15:56:04;;;;;;;19.00;7.17;;;4.40;96.30;;;;;;5073587;28;20473;-76
2021/03/22 15:58:30;;;;;;;16.53;6.93;;;4.10;96.30;;;;;;5079031;28;20450;-78
2021/03/22 16:00:56;;;;;;;17.73;7.67;;;3.90;96.30;;;;;;5094858;28;20428;-77
2021/03/22 16:03:22;;;;;;;18.57;7.57;;;3.70;96.30;;;;;;5078507;28;20175;-76
2021/03/22 16:05:50;;;;;;;20.67;6.70;;;3.60;96.30;;;;;;5074898;28;20166;-76
2021/03/22 16:08:18;;;;;;;13.93;6.20;;;3.70;96.30;;;;;;5074277;28;20439;-76
2021/03/22 16:10:44;;;;;;;20.57;6.10;;;3.60;96.30;;;;;;5074704;28;20417;-76
2021/03/22 16:13:16;;;;;;;15.57;6.67;;;3.50;96.30;;;;;;5074864;28;20473;-79
2021/03/22 16:15:42;;;;;;;14.47;7.03;;;3.50;96.30;;;;;;5073711;28;20208;-77
2021/03/22 16:18:07;;;;;;;12.23;5.60;;;3.40;96.30;;;;;;5073731;28;20485;-78
2021/03/22 16:20:35;;;;;;;11.83;5.27;;;3.30;96.30;;;;;;5074589;28;20555;-76
2021/03/22 16:23:02;;;;;;;18.83;6.73;;;3.30;96.30;;;;;;5077306;28;20316;-77
2021/03/22 16:25:30;;;;;;;19.27;6.23;;;3.30;96.30;;;;;;5106445;28;20442;-78
2021/03/22 16:27:57;;;;;;;12.73;5.93;;;3.40;96.30;;;;;;5092541;28;20428;-77
2021/03/22 16:30:24;;;;;;;12.67;4.73;;;3.30;96.30;;;;;;5103881;28;20499;-79
2021/03/22 16:32:50;;;;;;;15.23;5.43;;;3.30;96.30;;;;;;5097702;28;20432;-79
2021/03/22 16:35:22;;;;;;;15.70;6.53;;;3.20;96.30;;;;;;5098533;28;20434;-81
2021/03/22 16:37:50;;;;;;;14.40;5.30;;;3.20;96.30;;;;;;5089463;28;20446;-79
2021/03/22 16:40:17;;;;;;;16.23;6.00;;;3.20;96.30;;;;;;5109745;28;20482;-79
2021/03/22 16:42:42;;;;;;;14.60;6.50;;;3.20;96.30;;;;;;5100802;28;20428;-79
2021/03/22 16:45:08;;;;;;;19.37;6.37;;;3.20;96.30;;;;;;5078549;28;20427;-79
2021/03/22 16:47:34;;;;;;;13.47;5.30;;;3.20;96.30;;;;;;5102192;28;20650;-79
2021/03/22 16:50:00;;;;;;;17.43;5.73;;;3.20;96.30;;;;;;5104034;28;20438;-79
2021/03/22 16:52:25;;;;;;;20.47;7.30;;;3.10;96.30;;;;;;5113470;28;20204;-79
2021/03/22 16:54:51;;;;;;;16.17;5.67;;;3.00;96.30;;;;;;5094308;28;20179;-79
2021/03/22 16:57:16;;;;;;;12.77;6.13;;;3.00;96.30;;;;;;5095111;28;20264;-79
2021/03/22 16:59:42;;;;;;;15.90;6.10;;;2.90;96.30;;;;;;5086484;28;20212;-79
2021/03/22 17:02:10;;;;;;;23.33;7.30;;;2.90;96.30;;;;;;5095047;28;20198;-81
2021/03/22 17:04:37;;;;;;;18.87;7.17;;;2.90;96.30;;;;;;5077035;28;20461;-81
2021/03/22 17:07:04;;;;;;;20.97;8.37;;;2.80;96.30;;;;;;5075982;28;20428;-80
2021/03/22 17:09:30;;;;;;;23.23;11.27;;;2.80;96.30;;;;;;5074579;28;20431;-80
2021/03/22 17:11:56;;;;;;;10.67;5.80;;;2.80;96.30;;;;;;5076217;28;20524;-80